Startpagina
METAR-TAF:

METAR-TAF

Vliegvelden :

Vliegbasis Volkel

Uden, Nederland

breedte: 51-39N, lengte: 005-42E, hoogte: 22 m

Actueel weer

Dit bericht is 13 minuten geleden gemaakt, om 06:25 UTC
Wind 3 kt uit het noordwesten, variërend tussen het westnoordwesten en het noorden
Temperatuur 4°C
Vochtigheid 87%
Druk 1025 hPa
Zicht 10 km of meer
Geheel bewolkt op 15000 ft

METAR: EHVK 220625Z AUTO 32003KT 290V350 9999 OVC150 04/02 Q1025 BLU NOSIG

Tijdstip: 08:38 (06:38 UTC)

Verwachting

Dit bericht is 2 uur en het 36 minuten geleden gemaakt, om 04:02 UTC
Verwachting geldig van 22 om 05 UTC tot 22 om 17 UTC
Wind 5 kt uit het noordnoordwesten
Zicht 10 km of meer
Weinig wolken op 3000 ft
Verspreide wolken op 4800 ft
Kans 40% :
Tijdelijke
van 22 om 10 UTC tot 22 om 17 UTC
Wind 8 kt uit het noordnoordoosten met uitschieters tot 20 kt
Verspreide wolken op 3000 ft, Cumulonimbus.

TAF: EHVK 220402Z 2205/2217 34005KT 9999 FEW030 SCT048 PROB40 TEMPO 2210/2217 03008G20KT SCT030CB

Waarnemingen en weersverwachtingen van meer dan 4000 vliegvelden (METAR en TAF).

De beschikbare stations zijn de gele en rode punten op de kaart.

Ga met uw muis naar het station om de naam te zien.

Klik dan om waarnemingen en weersverwachtingen te zien.

kaart wijzigen: klik op de groene knoppen met een zwart kruis om in te zoomen, op de groene knop met een streepje om uit te zoomen of op de groene pijlen voor aangrenzende kaarten.


METAR-TAF: